Yangcheng, China
Current Conditions -  °F | °C
As of 5:00 AM on Friday 24 Oct 2014 (Local Time) from ZHCC Reporting Station
Haze Haze  
Wind Chill: 55°   Ceiling: Unl
Heat Index: 55°   Visibility: 0.75mi
Dew Point: 52°   Wind: 2mph
Humidity: 88%   Direction: NA
Pressure: 29.94"   Gusts: NA
Location:  35.48°N, 112.4°E
Report Text: ZHCC 232100Z VRB01MPS 1200 R12/1700D BR NSC 13/11 Q1014 NOSIG
Loading
Personal Weather Stations






























Interactive Weather Map
Tropical Storm Tracking
New forecast layout! Learn more

10-Day Weather Forecast

Advertisements
Track Severe Weather on mobile